createdAt,value
2018-09-20T00:00:36.854Z,5.20
2018-09-20T00:01:36.869Z,5.10
2018-09-20T00:02:36.886Z,5.50
2018-09-20T00:03:36.919Z,4.90
2018-09-20T00:04:36.932Z,5.50
2018-09-20T00:05:36.934Z,5.50
2018-09-20T00:06:37.000Z,5.20
2018-09-20T00:07:36.981Z,4.80
2018-09-20T00:08:36.983Z,5.20
2018-09-20T00:09:37.001Z,5.30
2018-09-20T00:10:37.015Z,4.90
2018-09-20T00:11:37.037Z,4.70
2018-09-20T00:12:37.060Z,4.10
2018-09-20T00:13:37.077Z,4.60
2018-09-20T00:14:37.094Z,4.90
2018-09-20T00:15:37.093Z,4.40
2018-09-20T00:16:37.113Z,4.80
2018-09-20T00:17:37.126Z,5.00
2018-09-20T00:18:37.142Z,5.10
2018-09-20T00:19:37.166Z,4.60
2018-09-20T00:20:37.173Z,4.40
2018-09-20T00:21:37.189Z,4.10
2018-09-20T00:22:38.307Z,4.60
2018-09-20T00:23:37.326Z,4.50
2018-09-20T00:24:37.236Z,4.60
2018-09-20T00:25:37.268Z,4.70
2018-09-20T00:26:37.268Z,5.30
2018-09-20T00:27:37.284Z,5.10
2018-09-20T00:28:37.306Z,4.80
2018-09-20T00:29:37.322Z,4.70
2018-09-20T00:30:37.333Z,5.00
2018-09-20T00:31:37.349Z,4.80
2018-09-20T00:32:37.364Z,4.80
2018-09-20T00:33:37.380Z,5.80
2018-09-20T00:34:37.395Z,5.00
2018-09-20T00:35:37.437Z,4.70
2018-09-20T00:36:37.426Z,4.90
2018-09-20T00:37:37.443Z,4.80
2018-09-20T00:38:37.763Z,5.00
2018-09-20T00:39:37.474Z,5.50
2018-09-20T00:40:37.494Z,5.00
2018-09-20T00:41:37.507Z,4.80
2018-09-20T00:42:37.521Z,5.20
2018-09-20T00:43:37.541Z,5.40
2018-09-20T00:44:37.553Z,5.30
2018-09-20T00:45:38.817Z,5.30
2018-09-20T00:46:37.804Z,5.00
2018-09-20T00:47:37.633Z,5.00
2018-09-20T00:48:37.670Z,5.30
2018-09-20T00:49:37.634Z,5.00
2018-09-20T00:50:37.649Z,5.40
2018-09-20T00:51:37.667Z,5.10
2018-09-20T00:52:37.683Z,5.10
2018-09-20T00:53:37.697Z,5.50
2018-09-20T00:54:37.711Z,5.60
2018-09-20T00:55:37.727Z,5.90
2018-09-20T00:56:37.746Z,5.50
2018-09-20T00:57:37.764Z,5.40
2018-09-20T00:58:37.779Z,5.20
2018-09-20T00:59:37.791Z,6.10
2018-09-20T01:00:37.806Z,5.20
2018-09-20T01:01:37.826Z,5.60
2018-09-20T01:02:37.840Z,5.30
2018-09-20T01:03:37.853Z,5.70
2018-09-20T01:04:37.883Z,6.00
2018-09-20T01:05:37.886Z,5.70
2018-09-20T01:06:37.903Z,5.90
2018-09-20T01:07:37.939Z,6.60
2018-09-20T01:08:37.934Z,6.30
2018-09-20T01:09:38.053Z,6.10
2018-09-20T01:10:37.965Z,6.00
2018-09-20T01:11:37.987Z,6.70
2018-09-20T01:12:37.995Z,5.70
2018-09-20T01:13:38.012Z,6.20
2018-09-20T01:14:38.028Z,6.40
2018-09-20T01:15:38.051Z,6.20
2018-09-20T01:16:38.060Z,6.10
2018-09-20T01:17:38.082Z,5.70
2018-09-20T01:18:38.120Z,6.90
2018-09-20T01:19:38.181Z,5.30
2018-09-20T01:20:38.122Z,5.70
2018-09-20T01:21:38.137Z,5.70
2018-09-20T01:22:38.156Z,6.10
2018-09-20T01:23:38.172Z,6.10
2018-09-20T01:24:38.185Z,6.50
2018-09-20T01:25:38.408Z,5.50
2018-09-20T01:27:38.233Z,5.80
2018-09-20T01:28:38.274Z,5.70
2018-09-20T01:29:38.264Z,5.30
2018-09-20T01:31:38.773Z,5.60
2018-09-20T01:32:38.313Z,5.20
2018-09-20T01:33:38.325Z,5.20
2018-09-20T01:34:38.497Z,6.00
2018-09-20T01:35:38.362Z,5.30
2018-09-20T01:36:38.374Z,5.60
2018-09-20T01:37:38.393Z,5.30
2018-09-20T01:38:38.419Z,5.80
2018-09-20T01:39:38.440Z,6.00
2018-09-20T01:40:38.437Z,5.60
2018-09-20T01:41:38.467Z,5.60
2018-09-20T01:42:38.472Z,5.00
2018-09-20T01:43:38.508Z,5.50
2018-09-20T01:44:38.499Z,5.30
2018-09-20T01:45:38.524Z,4.80
2018-09-20T01:46:38.532Z,5.30
2018-09-20T01:47:38.853Z,5.30
2018-09-20T01:48:38.563Z,5.50
2018-09-20T01:49:38.579Z,5.70
2018-09-20T01:50:38.597Z,5.80
2018-09-20T01:51:38.610Z,5.10
2018-09-20T01:52:38.633Z,5.00
2018-09-20T01:53:38.642Z,5.40
2018-09-20T01:54:38.665Z,5.30
2018-09-20T01:55:38.675Z,6.00
2018-09-20T01:56:38.689Z,5.80
2018-09-20T01:57:38.722Z,5.60
2018-09-20T01:58:38.720Z,5.40
2018-09-20T01:59:38.749Z,5.50
2018-09-20T02:00:38.765Z,5.20
2018-09-20T02:01:38.767Z,5.30
2018-09-20T02:02:38.782Z,5.50
2018-09-20T02:03:38.799Z,5.60
2018-09-20T02:04:38.823Z,5.40
2018-09-20T02:05:38.830Z,5.60
2018-09-20T02:06:38.848Z,5.40
2018-09-20T02:07:38.861Z,5.30
2018-09-20T02:08:38.877Z,5.40
2018-09-20T02:09:38.895Z,5.70
2018-09-20T02:10:38.909Z,5.60
2018-09-20T02:11:38.929Z,5.30
2018-09-20T02:12:38.939Z,5.60
2018-09-20T02:13:38.958Z,5.50
2018-09-20T02:14:38.970Z,5.70
2018-09-20T02:15:38.988Z,5.40
2018-09-20T02:16:39.004Z,5.50
2018-09-20T02:17:39.396Z,5.80
2018-09-20T02:18:39.046Z,5.90
2018-09-20T02:19:39.051Z,5.80
2018-09-20T02:20:39.066Z,5.70
2018-09-20T02:21:39.081Z,5.40
2018-09-20T02:22:39.199Z,5.40
2018-09-20T02:23:39.263Z,5.40
2018-09-20T02:24:39.134Z,5.20
2018-09-20T02:25:39.154Z,5.40
2018-09-20T02:26:39.159Z,5.80
2018-09-20T02:27:39.177Z,5.30
2018-09-20T02:28:39.191Z,5.00
2018-09-20T02:29:39.207Z,5.50
2018-09-20T02:30:39.227Z,5.50
2018-09-20T02:31:39.238Z,4.90
2018-09-20T02:32:39.256Z,5.90
2018-09-20T02:33:39.270Z,5.80
2018-09-20T02:34:39.287Z,5.10
2018-09-20T02:35:39.301Z,5.40
2018-09-20T02:36:39.622Z,5.40
2018-09-20T02:37:39.331Z,5.20
2018-09-20T02:38:39.360Z,5.90
2018-09-20T02:39:39.367Z,5.20
2018-09-20T02:40:39.379Z,5.50
2018-09-20T02:41:39.395Z,5.50
2018-09-20T02:42:39.416Z,5.10
2018-09-20T02:43:39.426Z,5.20
2018-09-20T02:44:39.449Z,6.10
2018-09-20T02:45:39.461Z,5.60
2018-09-20T02:46:39.473Z,5.30
2018-09-20T02:47:39.491Z,5.80
2018-09-20T02:48:39.505Z,5.50
2018-09-20T02:49:39.519Z,5.80
2018-09-20T02:50:39.878Z,5.60
2018-09-20T02:51:39.551Z,5.50
2018-09-20T02:52:39.574Z,5.40
2018-09-20T02:53:39.581Z,5.40
2018-09-20T02:54:39.600Z,4.90
2018-09-20T02:55:39.624Z,5.50
2018-09-20T02:56:39.673Z,5.30
2018-09-20T02:57:40.412Z,5.40
2018-09-20T02:58:39.668Z,5.50
2018-09-20T02:59:39.700Z,5.70
2018-09-20T03:00:39.691Z,6.00
2018-09-20T03:01:39.706Z,5.10
2018-09-20T03:02:39.721Z,5.50
2018-09-20T03:03:39.739Z,5.60
2018-09-20T03:04:39.752Z,5.30
2018-09-20T03:05:39.768Z,6.30
2018-09-20T03:06:39.783Z,5.30
2018-09-20T03:07:39.800Z,5.40
2018-09-20T03:08:39.814Z,5.70
2018-09-20T03:09:39.845Z,5.40
2018-09-20T03:10:39.847Z,5.80
2018-09-20T03:11:39.876Z,5.60
2018-09-20T03:12:39.946Z,5.50
2018-09-20T03:13:39.896Z,5.90
2018-09-20T03:14:39.908Z,5.60
2018-09-20T03:15:39.924Z,5.20
2018-09-20T03:16:39.943Z,5.40
2018-09-20T03:17:39.965Z,6.10
2018-09-20T03:18:40.031Z,6.10
2018-09-20T03:19:39.987Z,6.10
2018-09-20T03:20:40.003Z,5.70
2018-09-20T03:21:40.383Z,5.80
2018-09-20T03:22:40.034Z,5.50
2018-09-20T03:23:40.048Z,5.80
2018-09-20T03:24:40.064Z,6.00
2018-09-20T03:25:40.082Z,6.20
2018-09-20T03:26:40.115Z,5.70
2018-09-20T03:27:40.120Z,6.00
2018-09-20T03:28:40.126Z,6.20
2018-09-20T03:29:40.142Z,6.70
2018-09-20T03:30:40.256Z,6.60
2018-09-20T03:31:40.186Z,5.90
2018-09-20T03:32:40.195Z,6.10
2018-09-20T03:33:40.203Z,6.20
2018-09-20T03:34:40.221Z,6.40
2018-09-20T03:35:40.240Z,6.20
2018-09-20T03:36:40.253Z,6.50
2018-09-20T03:37:40.879Z,6.90
2018-09-20T03:38:40.281Z,7.10
2018-09-20T03:39:40.297Z,6.50
2018-09-20T03:40:40.314Z,7.30
2018-09-20T03:41:40.328Z,7.00
2018-09-20T03:42:40.345Z,7.10
2018-09-20T03:43:40.368Z,7.10
2018-09-20T03:44:40.400Z,7.80
2018-09-20T03:45:40.394Z,6.90
2018-09-20T03:46:40.415Z,7.20
2018-09-20T03:47:40.421Z,7.10
2018-09-20T03:48:40.439Z,7.40
2018-09-20T03:49:40.453Z,7.50
2018-09-20T03:50:40.469Z,7.10
2018-09-20T03:51:40.486Z,6.80
2018-09-20T03:52:40.501Z,6.90
2018-09-20T03:53:41.017Z,6.90
2018-09-20T03:54:40.533Z,6.20
2018-09-20T03:55:40.597Z,7.00
2018-09-20T03:56:40.810Z,6.10
2018-09-20T03:57:40.582Z,6.40
2018-09-20T03:58:40.592Z,5.70
2018-09-20T03:59:41.169Z,6.00
2018-09-20T04:00:40.638Z,5.40
2018-09-20T04:01:40.639Z,6.20
2018-09-20T04:02:40.653Z,5.90
2018-09-20T04:03:40.670Z,6.00
2018-09-20T04:04:40.702Z,5.90
2018-09-20T04:05:40.708Z,5.80
2018-09-20T04:06:40.715Z,6.80
2018-09-20T04:07:41.036Z,5.70
2018-09-20T04:08:40.747Z,5.90
2018-09-20T04:09:40.808Z,5.50
2018-09-20T04:10:40.779Z,6.10
2018-09-20T04:11:40.793Z,5.90
2018-09-20T04:12:40.815Z,6.80
2018-09-20T04:13:40.824Z,5.50
2018-09-20T04:14:40.843Z,5.60
2018-09-20T04:15:40.882Z,5.80
2018-09-20T04:16:40.871Z,5.50
2018-09-20T04:17:40.893Z,6.10
2018-09-20T04:18:40.902Z,5.70
2018-09-20T04:19:40.928Z,5.90
2018-09-20T04:20:41.238Z,5.80
2018-09-20T04:21:40.952Z,5.90
2018-09-20T04:22:40.965Z,5.90
2018-09-20T04:23:40.980Z,6.20
2018-09-20T04:24:40.995Z,5.60
2018-09-20T04:25:41.014Z,5.80
2018-09-20T04:26:41.031Z,6.30
2018-09-20T04:27:41.040Z,5.60
2018-09-20T04:28:41.058Z,5.80
2018-09-20T04:29:41.072Z,5.70
2018-09-20T04:30:41.088Z,6.20
2018-09-20T04:31:41.120Z,5.50
2018-09-20T04:32:41.116Z,5.60
2018-09-20T04:33:44.249Z,6.00
2018-09-20T04:34:45.790Z,6.10
2018-09-20T04:35:44.751Z,6.10
2018-09-20T04:36:41.180Z,5.80
2018-09-20T04:37:41.229Z,6.00
2018-09-20T04:38:41.246Z,6.40
2018-09-20T04:39:41.226Z,6.10
2018-09-20T04:40:41.259Z,6.50
2018-09-20T04:41:41.320Z,7.00
2018-09-20T04:42:41.272Z,7.20
2018-09-20T04:43:41.292Z,6.00
2018-09-20T04:44:41.308Z,7.40
2018-09-20T04:45:41.319Z,6.90
2018-09-20T04:46:41.515Z,7.30
2018-09-20T04:47:41.360Z,7.40
2018-09-20T04:48:41.375Z,7.10
2018-09-20T04:50:41.417Z,7.20
2018-09-20T04:51:41.419Z,7.00
2018-09-20T04:52:41.432Z,6.90
2018-09-20T04:53:41.456Z,7.30
2018-09-20T04:54:41.466Z,7.20
2018-09-20T04:55:41.475Z,7.40
2018-09-20T04:56:41.492Z,7.40
2018-09-20T04:57:41.507Z,7.10
2018-09-20T04:58:41.525Z,7.50
2018-09-20T04:59:41.537Z,6.60
2018-09-20T05:00:41.634Z,6.90
2018-09-20T05:01:41.848Z,7.30
2018-09-20T05:02:41.583Z,7.10
2018-09-20T05:03:41.599Z,7.40
2018-09-20T05:04:41.612Z,7.50
2018-09-20T05:05:41.630Z,6.70
2018-09-20T05:06:41.769Z,7.10
2018-09-20T05:07:42.810Z,6.90
2018-09-20T05:08:43.749Z,7.70
2018-09-20T05:09:41.828Z,7.00
2018-09-20T05:10:42.026Z,6.90
2018-09-20T05:11:41.724Z,6.70
2018-09-20T05:12:41.751Z,7.70
2018-09-20T05:13:41.752Z,7.40
2018-09-20T05:14:41.772Z,6.90
2018-09-20T05:15:41.840Z,6.80
2018-09-20T05:16:41.815Z,7.50
2018-09-20T05:17:41.835Z,7.30
2018-09-20T05:18:41.918Z,6.80
2018-09-20T05:19:41.855Z,7.30
2018-09-20T05:20:41.865Z,7.10
2018-09-20T05:22:41.996Z,8.70
2018-09-20T05:23:41.909Z,7.40
2018-09-20T05:24:41.926Z,7.90
2018-09-20T05:25:41.957Z,7.60
2018-09-20T05:26:41.953Z,7.00
2018-09-20T05:27:42.977Z,31.00
2018-09-20T05:28:41.996Z,7.70
2018-09-20T05:30:42.104Z,7.40
2018-09-20T05:31:42.043Z,7.50
2018-09-20T05:32:42.053Z,7.70
2018-09-20T05:33:42.068Z,8.20
2018-09-20T05:34:42.101Z,7.10
2018-09-20T05:35:42.115Z,7.40
2018-09-20T05:36:42.104Z,7.80
2018-09-20T05:37:42.274Z,8.20
2018-09-20T05:38:42.142Z,8.00
2018-09-20T05:39:42.156Z,8.20
2018-09-20T05:40:42.167Z,7.50
2018-09-20T05:41:42.189Z,8.00
2018-09-20T05:42:42.883Z,8.00
2018-09-20T05:43:42.618Z,7.90
2018-09-20T05:44:42.247Z,7.40
2018-09-20T05:45:42.559Z,7.70
2018-09-20T05:46:42.264Z,7.80
2018-09-20T05:47:42.279Z,7.40
2018-09-20T05:48:42.307Z,7.50
2018-09-20T05:49:42.341Z,7.30
2018-09-20T05:50:42.334Z,8.10
2018-09-20T05:51:42.402Z,7.90
2018-09-20T05:52:42.696Z,7.90
2018-09-20T05:53:42.748Z,7.70
2018-09-20T05:54:42.385Z,7.70
2018-09-20T05:55:42.570Z,8.60
2018-09-20T05:56:42.412Z,8.50
2018-09-20T05:57:42.828Z,8.80
2018-09-20T05:58:42.445Z,8.10
2018-09-20T05:59:42.469Z,8.10
2018-09-20T06:00:42.475Z,7.80
2018-09-20T06:01:42.493Z,8.00
2018-09-20T06:02:42.506Z,7.80
2018-09-20T06:03:42.521Z,9.00
2018-09-20T06:04:42.537Z,8.60
2018-09-20T06:05:42.569Z,8.60
2018-09-20T06:06:42.569Z,9.00
2018-09-20T06:07:42.585Z,8.80
2018-09-20T06:08:42.599Z,7.70
2018-09-20T06:09:42.615Z,8.40
2018-09-20T06:10:42.703Z,8.80
2018-09-20T06:11:42.647Z,9.00
2018-09-20T06:12:42.668Z,8.80
2018-09-20T06:13:42.683Z,9.00
2018-09-20T06:14:42.695Z,9.10
2018-09-20T06:15:42.708Z,9.30
2018-09-20T06:16:42.722Z,9.70
2018-09-20T06:17:42.739Z,9.90
2018-09-20T06:18:42.911Z,9.40
2018-09-20T06:19:42.815Z,10.00
2018-09-20T06:20:42.785Z,10.60
2018-09-20T06:21:42.860Z,10.40
2018-09-20T06:23:42.841Z,10.20
2018-09-20T06:24:42.863Z,10.30
2018-09-20T06:25:42.943Z,10.10
2018-09-20T06:26:43.468Z,9.70
2018-09-20T06:27:42.999Z,9.60
2018-09-20T06:28:43.368Z,9.00
2018-09-20T06:29:42.955Z,10.10
2018-09-20T06:30:42.955Z,8.40
2018-09-20T06:31:42.961Z,8.40
2018-09-20T06:32:42.971Z,9.20
2018-09-20T06:33:43.006Z,8.70
2018-09-20T06:34:43.043Z,9.00
2018-09-20T06:35:43.025Z,8.20
2018-09-20T06:36:43.055Z,9.20
2018-09-20T06:37:43.201Z,8.80
2018-09-20T06:38:43.816Z,8.80
2018-09-20T06:39:43.099Z,8.50
2018-09-20T06:40:43.201Z,9.50
2018-09-20T06:41:43.113Z,8.90
2018-09-20T06:42:43.136Z,9.30
2018-09-20T06:43:43.158Z,8.50
2018-09-20T06:44:43.160Z,8.90
2018-09-20T06:45:43.181Z,8.10
2018-09-20T06:46:43.192Z,8.90
2018-09-20T06:47:43.207Z,8.70
2018-09-20T06:48:43.221Z,9.30
2018-09-20T06:49:43.265Z,8.70
2018-09-20T06:50:43.258Z,8.80
2018-09-20T06:51:43.269Z,8.60
2018-09-20T06:52:43.281Z,8.40
2018-09-20T06:53:43.298Z,9.10
2018-09-20T06:54:43.316Z,8.20
2018-09-20T06:55:43.342Z,8.50
2018-09-20T06:56:43.423Z,8.90
2018-09-20T06:57:43.359Z,8.30
2018-09-20T06:58:43.389Z,8.50
2018-09-20T06:59:43.421Z,8.00
2018-09-20T07:00:43.411Z,8.00
2018-09-20T07:01:43.425Z,8.60
2018-09-20T07:02:43.471Z,8.80
2018-09-20T07:03:43.460Z,8.70
2018-09-20T07:04:43.478Z,8.00
2018-09-20T07:05:43.493Z,8.50
2018-09-20T07:06:43.501Z,8.40
2018-09-20T07:07:43.526Z,7.40
2018-09-20T07:08:43.543Z,8.10
2018-09-20T07:09:43.552Z,7.50
2018-09-20T07:10:43.566Z,7.40
2018-09-20T07:11:43.582Z,7.20
2018-09-20T07:12:43.600Z,7.60
2018-09-20T07:13:43.679Z,7.40
2018-09-20T07:14:43.624Z,7.00
2018-09-20T07:15:43.642Z,6.60
2018-09-20T07:16:43.656Z,6.80
2018-09-20T07:17:43.719Z,6.80
2018-09-20T07:19:43.710Z,6.60
2018-09-20T07:20:43.719Z,6.60
2018-09-20T07:21:44.852Z,6.40
2018-09-20T07:22:43.825Z,6.60
2018-09-20T07:23:44.192Z,6.90
2018-09-20T07:24:44.652Z,6.20
2018-09-20T07:25:45.003Z,6.50
2018-09-20T07:26:44.271Z,6.30
2018-09-20T07:27:43.992Z,6.50
2018-09-20T07:28:43.862Z,6.90
2018-09-20T07:29:43.869Z,6.60
2018-09-20T07:30:44.381Z,7.20
2018-09-20T07:31:43.905Z,6.00
2018-09-20T07:32:43.926Z,6.60
2018-09-20T07:33:44.007Z,6.60
2018-09-20T07:34:43.972Z,6.30
2018-09-20T07:35:44.063Z,6.50
2018-09-20T07:36:43.972Z,6.60
2018-09-20T07:37:44.068Z,6.70
2018-09-20T07:38:44.017Z,6.80
2018-09-20T07:39:44.160Z,6.40
2018-09-20T07:40:44.057Z,6.10
2018-09-20T07:41:44.056Z,6.70
2018-09-20T07:42:44.067Z,6.60
2018-09-20T07:43:44.092Z,6.50
2018-09-20T07:44:44.294Z,6.00
2018-09-20T07:45:44.147Z,6.10
2018-09-20T07:46:44.131Z,6.90
2018-09-20T07:47:44.152Z,6.20
2018-09-20T07:48:44.166Z,6.20
2018-09-20T07:49:44.179Z,6.80
2018-09-20T07:50:44.383Z,5.90
2018-09-20T07:51:44.251Z,6.10
2018-09-20T07:52:44.229Z,6.20
2018-09-20T07:53:44.380Z,6.20
2018-09-20T07:54:44.428Z,6.10
2018-09-20T07:55:44.524Z,5.90
2018-09-20T07:56:44.506Z,6.40
2018-09-20T07:57:44.399Z,6.00
2018-09-20T07:58:45.499Z,6.50
2018-09-20T07:59:44.366Z,5.90
2018-09-20T08:00:44.356Z,6.60
2018-09-20T08:01:44.855Z,5.20
2018-09-20T08:02:44.455Z,5.30
2018-09-20T08:03:44.443Z,5.80
2018-09-20T08:04:44.512Z,5.90
2018-09-20T08:05:44.488Z,5.80
2018-09-20T08:06:44.459Z,5.90
2018-09-20T08:07:44.814Z,5.70
2018-09-20T08:08:44.496Z,6.30
2018-09-20T08:09:45.655Z,5.20
2018-09-20T08:10:44.642Z,5.80
2018-09-20T08:11:44.543Z,5.40
2018-09-20T08:12:44.566Z,5.30
2018-09-20T08:13:44.577Z,5.20
2018-09-20T08:15:44.618Z,5.10
2018-09-20T08:16:45.144Z,5.10
2018-09-20T08:17:45.175Z,5.10
2018-09-20T08:18:45.053Z,5.70
2018-09-20T08:19:44.851Z,5.50
2018-09-20T08:21:44.789Z,6.10
2018-09-20T08:22:45.249Z,5.10
2018-09-20T08:23:44.739Z,5.60
2018-09-20T08:24:45.391Z,5.40
2018-09-20T08:25:44.809Z,5.40
2018-09-20T08:26:44.907Z,5.30
2018-09-20T08:27:44.876Z,5.50
2018-09-20T08:28:44.832Z,5.80
2018-09-20T08:29:44.856Z,5.20
2018-09-20T08:30:44.867Z,5.40
2018-09-20T08:31:45.026Z,5.60
2018-09-20T08:32:44.903Z,5.80
2018-09-20T08:33:44.941Z,5.60
2018-09-20T08:34:44.926Z,5.50
2018-09-20T08:35:44.941Z,5.70
2018-09-20T08:36:44.949Z,5.40
2018-09-20T08:37:45.582Z,5.40
2018-09-20T08:38:46.429Z,5.70
2018-09-20T08:39:45.111Z,6.00
2018-09-20T08:40:45.035Z,5.50
2018-09-20T08:41:45.052Z,6.40
2018-09-20T08:42:45.060Z,5.70
2018-09-20T08:43:45.141Z,5.80
2018-09-20T08:44:45.168Z,5.50
2018-09-20T08:45:45.469Z,5.50
2018-09-20T08:46:45.158Z,5.50
2018-09-20T08:47:45.568Z,5.00
2018-09-20T08:48:45.153Z,5.30
2018-09-20T08:49:45.403Z,4.80
2018-09-20T08:50:45.467Z,5.20
2018-09-20T08:51:45.353Z,5.20
2018-09-20T08:52:45.217Z,5.70
2018-09-20T08:53:45.251Z,5.10
2018-09-20T08:54:45.260Z,5.50
2018-09-20T08:55:45.542Z,6.00
2018-09-20T08:57:45.457Z,6.20
2018-09-20T08:59:45.575Z,5.20
2018-09-20T09:01:45.396Z,4.90
2018-09-20T09:02:45.434Z,5.30
2018-09-20T09:03:45.518Z,5.90
2018-09-20T09:04:45.590Z,6.00
2018-09-20T09:05:45.442Z,5.50
2018-09-20T09:06:46.707Z,5.60
2018-09-20T09:07:46.565Z,5.40
2018-09-20T09:08:45.484Z,5.30
2018-09-20T09:09:46.343Z,5.00
2018-09-20T09:10:45.846Z,5.20
2018-09-20T09:11:45.537Z,4.90
2018-09-20T09:12:45.628Z,4.90
2018-09-20T09:13:45.922Z,5.10
2018-09-20T09:14:45.603Z,5.30
2018-09-20T09:15:45.933Z,5.20
2018-09-20T09:16:46.221Z,5.30
2018-09-20T09:17:45.634Z,5.20
2018-09-20T09:18:45.661Z,5.50
2018-09-20T09:19:45.675Z,5.60
2018-09-20T09:20:45.703Z,4.80
2018-09-20T09:21:46.201Z,5.20
2018-09-20T09:22:45.716Z,5.40
2018-09-20T09:23:45.743Z,5.20
2018-09-20T09:24:46.677Z,5.60
2018-09-20T09:25:45.895Z,4.70
2018-09-20T09:26:45.902Z,4.90
2018-09-20T09:27:45.884Z,4.60
2018-09-20T09:28:45.900Z,5.20
2018-09-20T09:29:45.842Z,4.60
2018-09-20T09:30:45.862Z,4.60
2018-09-20T09:31:46.314Z,4.60
2018-09-20T09:32:45.940Z,5.20
2018-09-20T09:33:45.930Z,4.80
2018-09-20T09:34:45.963Z,4.60
2018-09-20T09:35:46.037Z,5.00
2018-09-20T09:36:45.955Z,4.10
2018-09-20T09:37:45.983Z,4.50
2018-09-20T09:38:46.289Z,4.20
2018-09-20T09:39:46.146Z,3.90
2018-09-20T09:40:47.049Z,4.90
2018-09-20T09:41:46.537Z,4.10
2018-09-20T09:42:46.053Z,4.30
2018-09-20T09:43:49.492Z,4.50
2018-09-20T09:44:46.124Z,4.20
2018-09-20T09:45:46.106Z,4.60
2018-09-20T09:46:46.142Z,3.90
2018-09-20T09:47:46.202Z,3.90
2018-09-20T09:48:46.188Z,4.20
2018-09-20T09:49:46.561Z,4.60
2018-09-20T09:50:46.210Z,3.80
2018-09-20T09:51:46.272Z,4.10
2018-09-20T09:52:46.223Z,3.70
2018-09-20T09:53:46.305Z,4.20
2018-09-20T09:54:46.300Z,4.10
2018-09-20T09:55:46.343Z,3.60
2018-09-20T09:56:46.601Z,3.80
2018-09-20T09:57:46.401Z,3.40
2018-09-20T09:58:47.764Z,4.50
2018-09-20T09:59:46.985Z,4.00
2018-09-20T10:00:47.676Z,4.00
2018-09-20T10:01:46.397Z,4.30
2018-09-20T10:03:47.060Z,4.30
2018-09-20T10:04:46.661Z,4.00
2018-09-20T10:05:46.907Z,4.00
2018-09-20T10:06:46.487Z,3.80
2018-09-20T10:07:46.847Z,3.80
2018-09-20T10:08:46.596Z,3.90
2018-09-20T10:09:46.964Z,3.90
2018-09-20T10:10:46.549Z,3.80
2018-09-20T10:11:46.567Z,4.00
2018-09-20T10:12:46.778Z,3.70
2018-09-20T10:13:47.686Z,3.80
2018-09-20T10:14:47.390Z,3.60
2018-09-20T10:15:47.125Z,3.80
2018-09-20T10:16:46.678Z,3.70
2018-09-20T10:17:46.665Z,3.90
2018-09-20T10:18:46.689Z,3.40
2018-09-20T10:19:46.768Z,3.70
2018-09-20T10:20:46.862Z,4.00
2018-09-20T10:21:46.866Z,3.40
2018-09-20T10:22:46.744Z,4.00
2018-09-20T10:23:46.767Z,3.60
2018-09-20T10:24:46.984Z,3.50
2018-09-20T10:25:46.795Z,3.30
2018-09-20T10:26:46.815Z,3.30
2018-09-20T10:27:46.926Z,3.30
2018-09-20T10:28:47.387Z,3.30
2018-09-20T10:29:46.927Z,3.30
2018-09-20T10:30:47.049Z,2.90
2018-09-20T10:31:47.566Z,3.10
2018-09-20T10:33:47.224Z,3.10
2018-09-20T10:34:47.001Z,2.90
2018-09-20T10:35:47.669Z,3.00
2018-09-20T10:36:47.162Z,3.10
2018-09-20T10:37:47.358Z,2.90
2018-09-20T10:38:47.106Z,3.10
2018-09-20T10:39:47.043Z,3.10
2018-09-20T10:40:47.078Z,3.00
2018-09-20T10:41:47.137Z,3.20
2018-09-20T10:42:47.135Z,3.90
2018-09-20T10:44:47.505Z,4.00
2018-09-20T10:45:47.151Z,3.50
2018-09-20T10:46:47.202Z,3.20
2018-09-20T10:47:48.084Z,3.00
2018-09-20T10:48:47.303Z,3.60
2018-09-20T10:49:48.046Z,3.10
2018-09-20T10:50:47.690Z,3.30
2018-09-20T10:51:47.334Z,3.30
2018-09-20T10:52:47.467Z,3.30
2018-09-20T10:53:47.300Z,3.60
2018-09-20T10:54:47.349Z,3.30
2018-09-20T10:55:47.366Z,2.90
2018-09-20T10:57:47.375Z,3.50
2018-09-20T10:58:47.557Z,3.60
2018-09-20T10:59:47.444Z,3.50
2018-09-20T11:01:47.441Z,3.20
2018-09-20T11:02:47.473Z,3.50
2018-09-20T11:03:47.487Z,3.70
2018-09-20T11:04:47.537Z,2.70
2018-09-20T11:06:48.298Z,3.50
2018-09-20T11:07:47.898Z,3.30
2018-09-20T11:08:47.620Z,3.10
2018-09-20T11:09:47.586Z,3.00
2018-09-20T11:10:47.668Z,3.00
2018-09-20T11:11:47.624Z,2.80
2018-09-20T11:12:47.642Z,3.40
2018-09-20T11:13:47.664Z,3.20
2018-09-20T11:14:47.686Z,3.20
2018-09-20T11:15:47.699Z,3.30
2018-09-20T11:16:47.714Z,3.20
2018-09-20T11:17:47.738Z,3.20
2018-09-20T11:18:47.756Z,2.70
2018-09-20T11:19:47.770Z,3.20
2018-09-20T11:20:47.786Z,3.00
2018-09-20T11:21:47.812Z,3.20
2018-09-20T11:22:47.826Z,3.30
2018-09-20T11:23:47.846Z,3.10
2018-09-20T11:24:47.863Z,3.20
2018-09-20T11:25:47.906Z,3.50
2018-09-20T11:26:47.900Z,3.10
2018-09-20T11:27:47.915Z,3.50
2018-09-20T11:28:47.935Z,3.50
2018-09-20T11:29:47.953Z,3.70
2018-09-20T11:30:47.972Z,4.00
2018-09-20T11:31:48.096Z,3.40
2018-09-20T11:32:48.015Z,3.10
2018-09-20T11:33:48.024Z,3.10
2018-09-20T11:34:48.047Z,3.30
2018-09-20T11:35:48.057Z,3.30
2018-09-20T11:36:48.090Z,3.30
2018-09-20T11:37:48.115Z,3.40
2018-09-20T11:38:48.112Z,3.50
2018-09-20T11:39:48.130Z,3.50
2018-09-20T11:40:48.450Z,3.30
2018-09-20T11:41:48.233Z,4.10
2018-09-20T11:42:48.181Z,3.30
2018-09-20T11:43:48.207Z,3.60
2018-09-20T11:44:48.219Z,3.60
2018-09-20T11:45:48.237Z,3.50
2018-09-20T11:46:48.258Z,3.60
2018-09-20T11:47:48.276Z,3.80
2018-09-20T11:48:48.293Z,3.80
2018-09-20T11:49:48.308Z,3.40
2018-09-20T11:50:48.331Z,3.40
2018-09-20T11:51:48.345Z,3.50
2018-09-20T11:52:48.365Z,3.40
2018-09-20T11:53:48.382Z,3.50
2018-09-20T11:54:48.398Z,3.30
2018-09-20T11:55:48.417Z,3.00
2018-09-20T11:56:48.738Z,3.40
2018-09-20T11:57:48.453Z,3.50
2018-09-20T11:58:48.471Z,3.30
2018-09-20T11:59:48.490Z,3.60
2018-09-20T12:00:48.509Z,3.30
2018-09-20T12:01:48.559Z,3.20
2018-09-20T12:02:48.549Z,3.20
2018-09-20T12:03:48.562Z,3.20
2018-09-20T12:04:48.576Z,3.30
2018-09-20T12:05:48.601Z,3.60
2018-09-20T12:06:48.617Z,3.20
2018-09-20T12:07:48.636Z,3.30
2018-09-20T12:08:48.650Z,3.40
2018-09-20T12:09:48.670Z,3.30
2018-09-20T12:10:48.688Z,3.20
2018-09-20T12:11:48.705Z,3.80
2018-09-20T12:12:48.723Z,3.50
2018-09-20T12:13:48.746Z,3.20
2018-09-20T12:14:48.765Z,3.00
2018-09-20T12:15:48.965Z,3.10
2018-09-20T12:16:48.797Z,3.10
2018-09-20T12:17:49.209Z,3.20
2018-09-20T12:18:48.845Z,3.40
2018-09-20T12:19:48.996Z,3.20
2018-09-20T12:20:48.897Z,3.10
2018-09-20T12:21:48.892Z,3.40
2018-09-20T12:22:48.908Z,3.20
2018-09-20T12:23:48.935Z,3.10
2018-09-20T12:24:48.941Z,3.60
2018-09-20T12:25:48.994Z,3.00
2018-09-20T12:26:48.980Z,2.80
2018-09-20T12:27:49.002Z,3.50
2018-09-20T12:28:49.023Z,3.30
2018-09-20T12:29:49.067Z,3.60
2018-09-20T12:30:49.062Z,3.70
2018-09-20T12:31:49.135Z,3.60
2018-09-20T12:32:49.150Z,3.20
2018-09-20T12:33:49.393Z,3.30
2018-09-20T12:34:49.245Z,3.40
2018-09-20T12:35:49.347Z,3.20
2018-09-20T12:36:49.168Z,3.40
2018-09-20T12:37:49.184Z,2.90
2018-09-20T12:38:49.229Z,3.30
2018-09-20T12:39:49.228Z,3.10
2018-09-20T12:40:49.244Z,3.30
2018-09-20T12:41:49.273Z,3.30
2018-09-20T12:42:49.357Z,3.10
2018-09-20T12:43:49.303Z,3.00
2018-09-20T12:44:49.320Z,3.50
2018-09-20T12:46:49.383Z,3.30
2018-09-20T12:47:49.381Z,3.00
2018-09-20T12:48:49.404Z,3.60
2018-09-20T12:49:49.422Z,3.00
2018-09-20T12:50:49.432Z,3.30
2018-09-20T12:51:49.454Z,3.20
2018-09-20T12:52:49.507Z,3.00
2018-09-20T12:53:49.489Z,2.70
2018-09-20T12:54:49.513Z,3.40
2018-09-20T12:55:49.528Z,3.50
2018-09-20T12:56:49.547Z,3.40
2018-09-20T12:57:49.567Z,2.80
2018-09-20T12:58:49.592Z,3.30
2018-09-20T12:59:49.637Z,3.20
2018-09-20T13:00:49.621Z,3.10
2018-09-20T13:01:49.663Z,3.50
2018-09-20T13:02:49.693Z,3.30
2018-09-20T13:03:49.678Z,3.00
2018-09-20T13:04:49.701Z,2.90
2018-09-20T13:05:49.737Z,3.00
2018-09-20T13:06:49.736Z,3.20
2018-09-20T13:07:49.763Z,3.00
2018-09-20T13:08:49.807Z,2.80
2018-09-20T13:09:49.837Z,2.90
2018-09-20T13:10:49.824Z,3.10
2018-09-20T13:11:49.829Z,2.70
2018-09-20T13:12:49.917Z,2.60
2018-09-20T13:13:49.868Z,2.60
2018-09-20T13:14:49.887Z,2.40
2018-09-20T13:15:49.907Z,2.90
2018-09-20T13:16:49.976Z,3.00
2018-09-20T13:17:49.949Z,3.30
2018-09-20T13:18:49.964Z,2.70
2018-09-20T13:19:50.006Z,2.80
2018-09-20T13:20:50.012Z,3.40
2018-09-20T13:21:50.023Z,3.20
2018-09-20T13:22:50.039Z,3.40
2018-09-20T13:23:50.059Z,2.90
2018-09-20T13:24:50.078Z,2.90
2018-09-20T13:25:50.098Z,3.20
2018-09-20T13:26:50.119Z,3.00
2018-09-20T13:27:50.144Z,2.80
2018-09-20T13:28:50.158Z,3.10
2018-09-20T13:29:50.481Z,2.80
2018-09-20T13:30:50.204Z,2.70
2018-09-20T13:31:50.269Z,2.90
2018-09-20T13:32:50.237Z,3.00
2018-09-20T13:33:50.254Z,2.90
2018-09-20T13:34:50.274Z,2.70
2018-09-20T13:35:50.338Z,3.00
2018-09-20T13:36:50.310Z,2.80
2018-09-20T13:37:50.338Z,2.90